الصفحة الرئيسية
METAR-TAF:

METAR-TAF

مطار :

فونافوتي, توفالو

دائرة عرض: 08-31S, خط طول: 179-13E, ارتفاع: 1 متر

مراقبة الطقس الحالي

تاريخ ووقت الإصدار 10 دقيقة قبل الساعة 03:00UTC
ريح 8 عقدة من الشمال الشرقي
درجة الحرارة 32°درجة مئوية
الرطوبة 67%
ضغط 1010 hPa
الرؤية 10 كم أو أكثر
غيوم قليلة على ارتفاع 1800 قدم, مزن ركامية عمودية.
غيوم متفرقة على ارتفاع 10000 قدم
غيوم مفككة على ارتفاع 30000 قدم

METAR: NGFU 270300Z 05008KT 9999 FEW018TCU SCT100 BKN300 32/25 Q1010

زمن: 15:10 (03:10 UTC)

توقعات

تاريخ ووقت الإصدار 10ساعات و 8 دقيقة قبل الساعة 17:02UTC
التوقعات صالحة من26 الساعة 18 UTC إلى 27 الساعة 18 UTC
ريح 9 عقدة من الشرق
الرؤية 10 كم أو أكثر
غيوم متفرقة على ارتفاع 1800 قدم
نظرية الاحتمالات 40% :
مؤقت
من 26 الساعة 18 UTC إلى 27 الساعة 18 UTC
الرؤية: 3000 متر
غيوم مفككة على ارتفاع 1500 قدم
غيوم قليلة على ارتفاع 1700 قدم, مزنة ركامية.
عاصفة رعدية, مطر

TAF: NGFU 261702Z 2618/2718 10009KT 9999 SCT018 PROB40 TEMPO 2618/2718 3000 TSRA BKN015 FEW017CB

أرصاد الطقس والتوقعات من أكثر من 4000 مطار (تقارير الطقس للمطار METAR والتنبؤ بالطقس بالمطارTAF).

المحطات المتاحة هي النقط الصفراء والحمراء على الخريطة.

حرك المؤشر فوق النقطة لمعرفة اسم المحطة.

ثم انقر لمعرفة أرصاد وتوقعات الطقس.

لتغيير الخارطة: اضغط على الأزرار الخضراء مع رمز الصليب الأسود للتكبير. على الزر الأخضر مع شرطة للتصغير، أو على الأسهم الخضراء للخرائط المجاورة.


METAR-TAF: